Wood Springs, Texas
Current Conditions -  °F | °C
As of 6:53 PM on Wednesday 22 Oct 2014 (Local Time) from KTYR Reporting Station
Clear Clear  
Wind Chill: 71°   Ceiling: Unl
Heat Index: 71°   Visibility: 10mi
Dew Point: 54°   Wind: 5mph
Humidity: 55%   Direction: 70°ENE
Pressure: 30.1"   Gusts: NA
Location:  32.5326°N, 95.4249°W
Report Text: KTYR 222353Z 07004KT 10SM CLR 22/12 A3010 RMK AO2 SLP187 T02170122 10267 20217 53006
Loading
Personal Weather Stations






























Interactive Weather Map
Tropical Storm Tracking
New forecast layout! Learn more

10-Day Weather Forecast

Advertisements
Track Severe Weather on mobile